Terminal Aerodrome Forecast
Issued by NWS

Home | Current Version | Previous Version | Text Only | Print | Product List | Glossary On
Versions: 1 2 3 4 5 6 7 8 9 10 11 12 13 14 15 16 17 18 19 20 21 22 23 24 25 26
041
FTUS43 KPAH 142151 AAD
TAFCGI
TAF AMD
KCGI 142151Z 1422/1518 01006KT P6SM VCSH BKN012 OVC025
     FM142300 36006KT P6SM VCSH BKN007 OVC025
     FM150600 02005KT 2SM -DZ BR OVC003
     FM151400 04005KT P6SM OVC008=

USA.gov is the U.S. government's official web portal to all federal, state and local government web resources and services.